createdAt,value
2022-10-18T00:01:45.739Z,75.20
2022-10-18T00:04:13.822Z,75.30
2022-10-18T00:06:43.544Z,75.30
2022-10-18T00:09:12.390Z,75.30
2022-10-18T00:11:41.986Z,75.30
2022-10-18T00:14:10.442Z,75.40
2022-10-18T00:16:38.482Z,75.40
2022-10-18T00:19:06.527Z,75.40
2022-10-18T00:21:34.645Z,75.40
2022-10-18T00:24:02.834Z,75.40
2022-10-18T00:26:32.143Z,75.40
2022-10-18T00:29:03.269Z,75.40
2022-10-18T00:31:32.926Z,75.40
2022-10-18T00:34:02.347Z,75.50
2022-10-18T00:36:32.535Z,75.50
2022-10-18T00:39:00.716Z,75.60
2022-10-18T00:41:31.694Z,75.70
2022-10-18T00:44:02.747Z,75.90
2022-10-18T00:46:32.623Z,75.80
2022-10-18T00:49:05.186Z,75.80
2022-10-18T00:51:37.402Z,75.80
2022-10-18T00:54:05.888Z,75.80
2022-10-18T00:56:35.380Z,75.80
2022-10-18T00:59:05.170Z,75.90
2022-10-18T01:01:36.264Z,76.20
2022-10-18T01:04:04.440Z,76.40
2022-10-18T01:06:32.754Z,76.40
2022-10-18T01:09:11.089Z,76.60
2022-10-18T01:11:56.142Z,76.90
2022-10-18T01:14:35.842Z,77.00
2022-10-18T01:17:11.404Z,77.00
2022-10-18T01:20:18.729Z,77.10
2022-10-18T01:22:51.650Z,77.50
2022-10-18T01:25:33.793Z,77.40
2022-10-18T01:28:13.530Z,77.50
2022-10-18T01:30:49.206Z,77.60
2022-10-18T01:33:32.543Z,77.70
2022-10-18T01:36:05.520Z,77.90
2022-10-18T01:38:36.138Z,77.70
2022-10-18T01:41:06.343Z,77.90
2022-10-18T01:43:36.823Z,78.10
2022-10-18T01:46:06.736Z,78.00
2022-10-18T01:48:37.984Z,78.00
2022-10-18T01:51:06.473Z,78.10
2022-10-18T01:53:35.910Z,78.10
2022-10-18T01:56:37.408Z,78.30
2022-10-18T01:59:24.127Z,78.80
2022-10-18T02:02:00.180Z,78.60
2022-10-18T02:04:35.370Z,78.60
2022-10-18T02:07:10.781Z,78.70
2022-10-18T02:09:46.310Z,78.80
2022-10-18T02:12:16.671Z,79.00
2022-10-18T02:14:46.588Z,78.90
2022-10-18T02:17:17.929Z,79.10
2022-10-18T02:19:51.241Z,79.20
2022-10-18T02:22:21.083Z,79.30
2022-10-18T02:24:53.919Z,79.30
2022-10-18T02:27:22.725Z,79.40
2022-10-18T02:29:51.003Z,79.50
2022-10-18T02:32:25.956Z,79.50
2022-10-18T02:34:59.603Z,79.70
2022-10-18T02:37:35.174Z,79.70
2022-10-18T02:40:05.133Z,79.60
2022-10-18T02:42:36.675Z,79.50
2022-10-18T02:45:06.194Z,79.70
2022-10-18T02:47:35.703Z,79.60
2022-10-18T02:50:03.821Z,79.70
2022-10-18T02:52:31.898Z,79.70
2022-10-18T02:54:59.932Z,79.80
2022-10-18T02:57:28.232Z,79.80
2022-10-18T02:59:56.408Z,79.80
2022-10-18T03:02:24.462Z,79.90
2022-10-18T03:04:53.905Z,79.90
2022-10-18T03:07:21.996Z,79.90
2022-10-18T03:09:50.113Z,79.70
2022-10-18T03:12:18.423Z,79.60
2022-10-18T03:14:46.530Z,79.60
2022-10-18T03:17:14.557Z,79.60
2022-10-18T03:19:42.855Z,79.70
2022-10-18T03:22:12.261Z,79.60
2022-10-18T03:24:40.280Z,79.60
2022-10-18T03:27:08.318Z,79.80
2022-10-18T03:29:36.341Z,80.00
2022-10-18T03:32:04.421Z,80.10
2022-10-18T03:34:32.439Z,80.10
2022-10-18T03:37:03.369Z,80.30
2022-10-18T03:39:34.802Z,80.30
2022-10-18T03:42:02.818Z,80.40
2022-10-18T03:44:30.855Z,80.30
2022-10-18T03:46:58.900Z,80.40
2022-10-18T03:49:27.011Z,80.40
2022-10-18T03:51:55.103Z,80.40
2022-10-18T03:54:23.130Z,80.40
2022-10-18T03:56:52.499Z,80.40
2022-10-18T03:59:20.718Z,80.50
2022-10-18T04:01:48.817Z,80.50
2022-10-18T04:04:16.992Z,80.50
2022-10-18T04:06:45.121Z,80.50
2022-10-18T04:09:13.313Z,80.40
2022-10-18T04:11:41.404Z,80.40
2022-10-18T04:14:10.810Z,80.20
2022-10-18T04:16:38.876Z,79.90
2022-10-18T04:19:06.911Z,79.70
2022-10-18T04:21:34.978Z,79.70
2022-10-18T04:24:03.019Z,79.80
2022-10-18T04:26:31.068Z,79.90
2022-10-18T04:28:59.175Z,80.00
2022-10-18T04:31:28.635Z,80.00
2022-10-18T04:33:56.678Z,80.20
2022-10-18T04:36:24.704Z,80.10
2022-10-18T04:38:52.746Z,80.10
2022-10-18T04:41:20.795Z,80.10
2022-10-18T04:43:48.846Z,80.00
2022-10-18T04:46:16.911Z,80.00
2022-10-18T04:48:46.326Z,80.00
2022-10-18T04:51:14.386Z,80.10
2022-10-18T04:53:42.459Z,79.90
2022-10-18T04:56:10.774Z,80.00
2022-10-18T04:58:38.827Z,80.00
2022-10-18T05:01:07.597Z,80.20
2022-10-18T05:03:36.034Z,80.40
2022-10-18T05:06:06.205Z,80.50
2022-10-18T05:08:36.012Z,80.70
2022-10-18T05:11:04.544Z,80.70
2022-10-18T05:13:32.685Z,80.80
2022-10-18T05:16:00.860Z,80.80
2022-10-18T05:18:29.355Z,80.80
2022-10-18T05:20:57.663Z,80.70
2022-10-18T05:23:27.155Z,80.60
2022-10-18T05:25:55.565Z,80.70
2022-10-18T05:28:41.151Z,80.60
2022-10-18T05:31:11.145Z,80.70
2022-10-18T05:33:39.264Z,80.60
2022-10-18T05:36:07.892Z,80.70
2022-10-18T05:38:40.108Z,80.60
2022-10-18T05:41:08.154Z,80.70
2022-10-18T05:43:36.215Z,80.50
2022-10-18T05:46:07.259Z,80.50
2022-10-18T05:48:37.513Z,80.60
2022-10-18T05:51:06.310Z,80.60
2022-10-18T05:53:38.281Z,80.70
2022-10-18T05:56:08.777Z,80.70
2022-10-18T05:58:37.038Z,80.70
2022-10-18T06:01:06.905Z,80.70
2022-10-18T06:03:35.419Z,80.70
2022-10-18T06:06:04.380Z,80.60
2022-10-18T06:08:32.505Z,80.70
2022-10-18T06:11:00.981Z,80.60
2022-10-18T06:13:32.422Z,80.60
2022-10-18T06:16:01.824Z,80.50
2022-10-18T06:18:30.123Z,80.50
2022-10-18T06:20:59.298Z,80.50
2022-10-18T06:23:28.169Z,80.60
2022-10-18T06:26:00.347Z,80.60
2022-10-18T06:28:30.936Z,80.60
2022-10-18T06:30:59.610Z,80.50
2022-10-18T06:33:27.874Z,80.50
2022-10-18T06:35:57.190Z,80.30
2022-10-18T06:38:25.731Z,80.40
2022-10-18T06:40:54.062Z,80.30
2022-10-18T06:43:22.141Z,80.20
2022-10-18T06:45:51.991Z,80.20
2022-10-18T06:50:56.852Z,80.20
2022-10-18T06:53:25.506Z,80.30
2022-10-18T06:55:53.679Z,80.20
2022-10-18T06:58:21.738Z,80.20
2022-10-18T07:00:51.212Z,80.20
2022-10-18T07:03:19.330Z,80.10
2022-10-18T07:05:47.389Z,80.10
2022-10-18T07:08:15.647Z,80.00
2022-10-18T07:10:43.763Z,79.90
2022-10-18T07:13:31.383Z,80.00
2022-10-18T07:16:06.736Z,79.80
2022-10-18T07:18:35.669Z,79.70
2022-10-18T07:21:04.541Z,79.60
2022-10-18T07:23:34.989Z,79.60
2022-10-18T07:26:03.533Z,79.50
2022-10-18T07:28:31.803Z,79.50
2022-10-18T07:31:07.440Z,79.50
2022-10-18T07:33:35.692Z,79.50
2022-10-18T07:36:04.125Z,79.40
2022-10-18T07:38:32.391Z,79.40
2022-10-18T07:41:03.706Z,79.30
2022-10-18T07:43:32.328Z,79.30
2022-10-18T07:46:02.482Z,79.30
2022-10-18T07:48:32.409Z,79.20
2022-10-18T07:51:01.641Z,79.20
2022-10-18T07:53:30.482Z,79.20
2022-10-18T07:56:01.379Z,79.30
2022-10-18T07:58:32.934Z,79.40
2022-10-18T08:01:04.117Z,79.30
2022-10-18T08:03:33.674Z,79.90
2022-10-18T08:06:02.127Z,80.10
2022-10-18T08:08:30.707Z,79.80
2022-10-18T08:11:04.235Z,79.40
2022-10-18T08:13:32.742Z,78.70
2022-10-18T08:16:01.613Z,78.30
2022-10-18T08:18:29.816Z,77.90
2022-10-18T08:21:00.651Z,77.60
2022-10-18T08:23:28.726Z,77.40
2022-10-18T08:25:56.780Z,77.20
2022-10-18T08:28:24.885Z,77.00
2022-10-18T08:30:52.982Z,76.80
2022-10-18T08:33:20.999Z,76.80
2022-10-18T08:35:56.476Z,76.70
2022-10-18T08:38:26.266Z,77.00
2022-10-18T08:40:54.370Z,76.90
2022-10-18T08:43:31.888Z,76.90
2022-10-18T08:46:00.868Z,77.00
2022-10-18T08:48:35.313Z,77.20
2022-10-18T08:51:05.505Z,77.50
2022-10-18T08:53:41.842Z,77.70
2022-10-18T08:56:14.874Z,78.00
2022-10-18T08:58:45.064Z,78.20
2022-10-18T09:01:26.876Z,78.50
2022-10-18T09:04:20.328Z,78.80
2022-10-18T09:06:57.243Z,79.20
2022-10-18T09:09:40.336Z,78.60
2022-10-18T09:12:27.619Z,78.70
2022-10-18T09:15:09.804Z,78.60
2022-10-18T09:17:45.739Z,78.50
2022-10-18T09:20:23.927Z,78.60
2022-10-18T09:22:58.230Z,78.50
2022-10-18T09:25:36.620Z,78.30
2022-10-18T09:28:16.278Z,78.20
2022-10-18T09:30:54.822Z,78.40
2022-10-18T09:33:38.280Z,78.00
2022-10-18T09:36:09.144Z,77.80
2022-10-18T09:38:44.423Z,77.70
2022-10-18T09:41:17.911Z,78.00
2022-10-18T09:43:52.643Z,77.90
2022-10-18T09:46:22.996Z,78.10
2022-10-18T09:48:55.579Z,78.20
2022-10-18T09:51:27.355Z,78.20
2022-10-18T09:54:01.678Z,78.60
2022-10-18T09:56:39.288Z,78.60
2022-10-18T09:59:37.699Z,78.30
2022-10-18T10:02:06.337Z,78.40
2022-10-18T10:04:34.454Z,78.30
2022-10-18T10:07:03.454Z,78.30
2022-10-18T10:09:37.191Z,77.90
2022-10-18T10:12:06.897Z,77.90
2022-10-18T10:14:45.144Z,77.90
2022-10-18T10:17:25.016Z,77.90
2022-10-18T10:20:00.402Z,77.90
2022-10-18T10:22:33.774Z,77.80
2022-10-18T10:25:02.252Z,77.80
2022-10-18T10:27:34.662Z,77.90
2022-10-18T10:30:07.272Z,77.80
2022-10-18T10:32:47.549Z,77.70
2022-10-18T10:35:52.704Z,77.90
2022-10-18T10:38:25.560Z,77.40
2022-10-18T10:40:54.338Z,77.20
2022-10-18T10:43:42.000Z,77.10
2022-10-18T10:46:12.770Z,76.80
2022-10-18T10:48:48.219Z,76.60
2022-10-18T10:51:19.250Z,76.40
2022-10-18T10:53:52.457Z,76.80
2022-10-18T10:56:26.272Z,76.80
2022-10-18T10:58:56.801Z,76.70
2022-10-18T11:01:33.153Z,76.70
2022-10-18T11:04:03.061Z,76.40
2022-10-18T11:06:51.507Z,76.40
2022-10-18T11:09:45.242Z,76.20
2022-10-18T11:12:26.419Z,75.70
2022-10-18T11:15:05.621Z,75.50
2022-10-18T11:17:40.941Z,75.70
2022-10-18T11:20:22.268Z,76.00
2022-10-18T11:23:02.958Z,75.90
2022-10-18T11:26:01.513Z,76.10
2022-10-18T11:28:43.205Z,75.40
2022-10-18T11:31:19.959Z,75.60
2022-10-18T11:34:08.763Z,75.90
2022-10-18T11:36:56.248Z,75.50
2022-10-18T11:39:40.542Z,75.60
2022-10-18T11:42:20.713Z,75.50
2022-10-18T11:45:01.245Z,75.50
2022-10-18T11:47:38.025Z,75.50
2022-10-18T11:50:13.747Z,75.60
2022-10-18T11:52:53.415Z,75.30
2022-10-18T11:55:39.513Z,75.10
2022-10-18T11:58:24.011Z,75.20
2022-10-18T12:00:56.931Z,74.90
2022-10-18T12:03:46.490Z,74.80
2022-10-18T12:06:19.391Z,75.00
2022-10-18T12:08:51.662Z,75.10
2022-10-18T12:11:23.410Z,74.80
2022-10-18T12:13:52.762Z,74.50
2022-10-18T12:16:45.623Z,75.00
2022-10-18T12:19:23.721Z,74.40
2022-10-18T12:21:57.525Z,74.40
2022-10-18T12:24:29.967Z,75.20
2022-10-18T12:27:00.965Z,74.50
2022-10-18T12:29:32.645Z,74.60
2022-10-18T12:32:02.683Z,74.50
2022-10-18T12:34:41.033Z,74.80
2022-10-18T12:37:38.744Z,74.30
2022-10-18T12:40:18.233Z,74.50
2022-10-18T12:42:50.925Z,74.80
2022-10-18T12:45:28.473Z,74.70
2022-10-18T12:48:00.391Z,74.40
2022-10-18T12:50:34.939Z,74.30
2022-10-18T12:53:16.796Z,74.40
2022-10-18T12:55:46.623Z,74.60
2022-10-18T12:58:32.506Z,74.70
2022-10-18T13:01:06.458Z,74.70
2022-10-18T13:03:41.986Z,74.80
2022-10-18T13:06:11.447Z,74.60
2022-10-18T13:08:42.906Z,74.50
2022-10-18T13:11:38.368Z,74.60
2022-10-18T13:14:44.140Z,74.70
2022-10-18T13:17:31.118Z,74.70
2022-10-18T13:20:25.457Z,74.40
2022-10-18T13:25:56.321Z,74.90
2022-10-18T13:28:31.945Z,74.30
2022-10-18T13:31:09.582Z,74.20
2022-10-18T13:33:39.737Z,74.40
2022-10-18T13:36:24.854Z,74.20
2022-10-18T13:39:06.975Z,74.20
2022-10-18T13:42:15.585Z,74.00
2022-10-18T13:44:45.451Z,74.50
2022-10-18T13:47:15.932Z,74.00
2022-10-18T13:50:16.555Z,74.00
2022-10-18T13:53:12.129Z,73.80
2022-10-18T13:55:56.035Z,73.70
2022-10-18T13:58:31.722Z,73.40
2022-10-18T14:01:14.413Z,73.50
2022-10-18T14:04:27.786Z,73.20
2022-10-18T14:07:02.358Z,73.10
2022-10-18T14:09:52.483Z,73.30
2022-10-18T14:12:30.346Z,73.10
2022-10-18T14:15:06.418Z,72.70
2022-10-18T14:17:41.803Z,72.50
2022-10-18T14:20:20.470Z,72.40
2022-10-18T14:22:54.695Z,72.40
2022-10-18T14:25:26.954Z,72.40
2022-10-18T14:28:11.429Z,72.30
2022-10-18T14:30:53.207Z,72.30
2022-10-18T14:33:31.124Z,72.40
2022-10-18T14:36:13.063Z,72.40
2022-10-18T14:38:50.306Z,72.50
2022-10-18T14:41:22.510Z,72.40
2022-10-18T14:43:53.792Z,72.60
2022-10-18T14:46:27.223Z,72.70
2022-10-18T14:48:59.526Z,72.80
2022-10-18T14:51:29.244Z,72.80
2022-10-18T14:53:57.796Z,72.80
2022-10-18T14:56:28.863Z,72.80
2022-10-18T14:59:01.141Z,72.90
2022-10-18T15:01:32.133Z,72.90
2022-10-18T15:04:02.139Z,72.70
2022-10-18T15:06:30.207Z,72.70
2022-10-18T15:09:00.015Z,72.70
2022-10-18T15:11:29.529Z,72.70
2022-10-18T15:14:02.963Z,72.90
2022-10-18T15:16:32.824Z,73.00
2022-10-18T15:19:02.751Z,73.00
2022-10-18T15:21:31.139Z,73.20
2022-10-18T15:24:29.002Z,73.30
2022-10-18T15:27:01.096Z,73.20
2022-10-18T15:29:36.098Z,73.30
2022-10-18T15:32:13.802Z,73.50
2022-10-18T15:34:41.924Z,73.70
2022-10-18T15:37:19.759Z,73.90
2022-10-18T15:39:47.823Z,73.60
2022-10-18T15:42:38.169Z,73.60
2022-10-18T15:45:35.903Z,73.60
2022-10-18T15:48:20.429Z,73.60
2022-10-18T15:50:49.899Z,73.60
2022-10-18T15:53:45.603Z,73.70
2022-10-18T15:56:33.834Z,74.00
2022-10-18T15:59:04.951Z,74.00
2022-10-18T16:01:45.298Z,74.00
2022-10-18T16:04:19.825Z,74.10
2022-10-18T16:06:47.907Z,74.20
2022-10-18T16:09:19.259Z,74.40
2022-10-18T16:11:52.932Z,74.50
2022-10-18T16:14:25.673Z,74.70
2022-10-18T16:16:56.225Z,74.80
2022-10-18T16:19:25.667Z,74.90
2022-10-18T16:21:55.150Z,75.00
2022-10-18T16:24:23.830Z,75.10
2022-10-18T16:26:53.132Z,75.10
2022-10-18T16:29:25.508Z,75.10
2022-10-18T16:31:57.965Z,75.20
2022-10-18T16:34:27.932Z,75.20
2022-10-18T16:36:56.142Z,75.30
2022-10-18T16:39:25.237Z,75.30
2022-10-18T16:41:53.382Z,75.20
2022-10-18T16:44:21.507Z,75.10
2022-10-18T16:46:52.420Z,75.10
2022-10-18T16:49:25.551Z,75.10
2022-10-18T16:51:55.858Z,75.00
2022-10-18T16:54:24.556Z,75.10
2022-10-18T16:56:52.662Z,75.10
2022-10-18T16:59:25.383Z,75.20
2022-10-18T17:01:53.604Z,75.20
2022-10-18T17:04:21.870Z,75.20
2022-10-18T17:06:50.480Z,75.40
2022-10-18T17:09:19.897Z,75.40
2022-10-18T17:11:47.980Z,75.40
2022-10-18T17:14:16.028Z,75.50
2022-10-18T17:16:46.653Z,75.60
2022-10-18T17:19:18.403Z,75.80
2022-10-18T17:21:46.557Z,76.00
2022-10-18T17:24:14.590Z,76.10
2022-10-18T17:26:44.103Z,76.90
2022-10-18T17:29:12.284Z,76.20
2022-10-18T17:31:40.376Z,76.30
2022-10-18T17:34:09.020Z,76.40
2022-10-18T17:36:37.171Z,76.40
2022-10-18T17:39:05.991Z,76.50
2022-10-18T17:41:34.036Z,76.60
2022-10-18T17:44:05.755Z,76.60
2022-10-18T17:46:33.851Z,76.80
2022-10-18T17:49:01.915Z,76.80
2022-10-18T17:51:29.970Z,77.00
2022-10-18T17:53:58.018Z,77.20
2022-10-18T17:56:31.003Z,77.20
2022-10-18T17:58:59.026Z,77.30
2022-10-18T18:01:28.733Z,77.20
2022-10-18T18:03:58.019Z,77.20
2022-10-18T18:06:30.970Z,76.90
2022-10-18T18:08:59.826Z,76.70
2022-10-18T18:11:28.242Z,76.70
2022-10-18T18:13:56.670Z,76.70
2022-10-18T18:16:28.951Z,77.00
2022-10-18T18:18:58.381Z,77.20
2022-10-18T18:21:27.952Z,77.40
2022-10-18T18:23:56.450Z,77.50
2022-10-18T18:26:25.111Z,77.40
2022-10-18T18:28:53.611Z,77.30
2022-10-18T18:31:23.932Z,77.20
2022-10-18T18:33:54.388Z,77.20
2022-10-18T18:36:23.051Z,77.00
2022-10-18T18:38:56.856Z,76.60
2022-10-18T18:41:27.590Z,76.10
2022-10-18T18:43:57.392Z,75.70
2022-10-18T18:46:27.362Z,75.40
2022-10-18T18:48:58.639Z,75.10
2022-10-18T18:51:27.123Z,74.80
2022-10-18T18:53:55.395Z,74.60
2022-10-18T18:56:28.800Z,74.50
2022-10-18T18:58:59.170Z,74.20
2022-10-18T19:01:29.789Z,74.30
2022-10-18T19:04:00.255Z,74.10
2022-10-18T19:06:30.883Z,73.90
2022-10-18T19:09:02.863Z,73.70
2022-10-18T19:11:32.799Z,73.70
2022-10-18T19:14:01.250Z,73.70
2022-10-18T19:16:31.135Z,73.70
2022-10-18T19:19:02.806Z,73.80
2022-10-18T19:21:32.588Z,73.90
2022-10-18T19:24:00.857Z,74.00
2022-10-18T19:26:32.342Z,73.90
2022-10-18T19:29:07.121Z,73.90
2022-10-18T19:31:35.979Z,73.80
2022-10-18T19:34:07.512Z,74.00
2022-10-18T19:36:36.346Z,73.80
2022-10-18T19:39:06.020Z,74.00
2022-10-18T19:41:34.103Z,73.90
2022-10-18T19:44:02.346Z,73.90
2022-10-18T19:46:30.419Z,73.90
2022-10-18T19:48:58.713Z,73.80
2022-10-18T19:51:28.596Z,73.80
2022-10-18T19:53:57.549Z,73.80
2022-10-18T19:56:27.405Z,73.80
2022-10-18T19:58:56.051Z,73.70
2022-10-18T20:01:24.818Z,73.80
2022-10-18T20:03:53.018Z,73.80
2022-10-18T20:06:21.264Z,73.80
2022-10-18T20:08:51.244Z,73.70
2022-10-18T20:11:21.372Z,73.70
2022-10-18T20:13:49.461Z,73.70
2022-10-18T20:16:23.064Z,73.70
2022-10-18T20:18:56.547Z,73.60
2022-10-18T20:21:24.616Z,73.70
2022-10-18T20:23:54.883Z,73.80
2022-10-18T20:26:25.273Z,73.70
2022-10-18T20:28:56.834Z,73.90
2022-10-18T20:31:26.501Z,73.80
2022-10-18T20:33:56.576Z,73.60
2022-10-18T20:36:25.398Z,73.50
2022-10-18T20:38:55.096Z,73.40
2022-10-18T20:41:25.045Z,73.30
2022-10-18T20:43:54.260Z,73.10
2022-10-18T20:46:22.869Z,73.00
2022-10-18T20:48:51.570Z,72.90
2022-10-18T20:51:20.189Z,72.90
2022-10-18T20:53:48.542Z,72.90
2022-10-18T20:56:20.661Z,72.80
2022-10-18T20:58:50.256Z,72.70
2022-10-18T21:01:19.937Z,72.70
2022-10-18T21:03:49.665Z,72.70
2022-10-18T21:06:19.745Z,72.70
2022-10-18T21:08:48.146Z,72.70
2022-10-18T21:11:17.539Z,72.80
2022-10-18T21:13:45.558Z,72.80
2022-10-18T21:16:13.608Z,72.90
2022-10-18T21:18:41.683Z,72.90
2022-10-18T21:23:44.503Z,72.90
2022-10-18T21:26:15.616Z,73.00
2022-10-18T21:28:45.345Z,72.90
2022-10-18T21:31:15.890Z,73.00
2022-10-18T21:33:44.990Z,73.10
2022-10-18T21:36:13.844Z,73.20
2022-10-18T21:38:44.863Z,73.30
2022-10-18T21:41:14.271Z,73.50
2022-10-18T21:43:45.194Z,73.60
2022-10-18T21:46:14.715Z,73.60
2022-10-18T21:48:44.918Z,73.70
2022-10-18T21:51:14.451Z,73.80
2022-10-18T21:53:44.624Z,73.80
2022-10-18T21:56:14.564Z,73.80
2022-10-18T21:58:44.074Z,73.80
2022-10-18T22:01:14.356Z,73.70
2022-10-18T22:03:43.009Z,73.70
2022-10-18T22:06:14.092Z,73.60
2022-10-18T22:08:42.198Z,73.50
2022-10-18T22:11:10.345Z,73.40
2022-10-18T22:13:38.708Z,73.30
2022-10-18T22:16:09.953Z,73.20
2022-10-18T22:18:38.114Z,73.10
2022-10-18T22:21:08.743Z,73.20
2022-10-18T22:23:38.400Z,73.20
2022-10-18T22:26:08.741Z,73.20
2022-10-18T22:28:36.963Z,73.20
2022-10-18T22:31:05.262Z,73.20
2022-10-18T22:33:34.668Z,73.10
2022-10-18T22:36:02.684Z,73.10
2022-10-18T22:38:34.011Z,73.20
2022-10-18T22:41:05.394Z,73.20
2022-10-18T22:43:33.495Z,73.30
2022-10-18T22:46:02.830Z,73.20
2022-10-18T22:48:31.284Z,73.10
2022-10-18T22:51:01.435Z,73.20
2022-10-18T22:53:30.233Z,73.20
2022-10-18T22:55:58.321Z,73.20
2022-10-18T22:58:26.818Z,73.20
2022-10-18T23:01:01.710Z,73.10
2022-10-18T23:03:30.039Z,73.00
2022-10-18T23:06:00.769Z,73.10
2022-10-18T23:08:29.516Z,73.10
2022-10-18T23:10:59.404Z,73.30
2022-10-18T23:13:28.579Z,73.40
2022-10-18T23:16:04.504Z,73.50
2022-10-18T23:18:33.935Z,73.70
2022-10-18T23:21:04.854Z,73.80
2022-10-18T23:23:35.618Z,73.80
2022-10-18T23:26:06.140Z,73.90
2022-10-18T23:28:38.133Z,74.00
2022-10-18T23:31:10.741Z,74.00
2022-10-18T23:33:39.294Z,74.10
2022-10-18T23:36:09.733Z,74.20
2022-10-18T23:38:38.667Z,74.50
2022-10-18T23:41:07.583Z,74.50
2022-10-18T23:43:35.979Z,74.60
2022-10-18T23:46:04.395Z,74.60
2022-10-18T23:48:34.214Z,74.70
2022-10-18T23:51:02.494Z,74.70
2022-10-18T23:53:32.207Z,74.50
2022-10-18T23:56:01.808Z,74.40
2022-10-18T23:58:31.799Z,74.40
